sensor_id;sensor_type;location;lat;lon;timestamp;P1;durP1;ratioP1;P2;durP2;ratioP2
38859;SDS011;24609;48.316;16.174;2022-11-27T00:00:42;12.48;;;6.97;;
38859;SDS011;24609;48.316;16.174;2022-11-27T00:03:08;16.75;;;5.68;;
38859;SDS011;24609;48.316;16.174;2022-11-27T00:05:34;9.93;;;5.90;;
38859;SDS011;24609;48.316;16.174;2022-11-27T00:08:00;6.57;;;3.83;;
38859;SDS011;24609;48.316;16.174;2022-11-27T00:10:25;12.40;;;4.80;;
38859;SDS011;24609;48.316;16.174;2022-11-27T00:12:51;11.77;;;5.57;;
38859;SDS011;24609;48.316;16.174;2022-11-27T00:15:17;8.07;;;5.05;;
38859;SDS011;24609;48.316;16.174;2022-11-27T00:17:43;14.10;;;5.97;;
38859;SDS011;24609;48.316;16.174;2022-11-27T00:20:09;10.75;;;5.00;;
38859;SDS011;24609;48.316;16.174;2022-11-27T00:22:35;8.65;;;4.90;;
38859;SDS011;24609;48.316;16.174;2022-11-27T00:25:01;11.23;;;5.32;;
38859;SDS011;24609;48.316;16.174;2022-11-27T00:27:26;14.60;;;6.05;;
38859;SDS011;24609;48.316;16.174;2022-11-27T00:29:52;9.52;;;5.05;;
38859;SDS011;24609;48.316;16.174;2022-11-27T00:32:18;8.25;;;4.70;;
38859;SDS011;24609;48.316;16.174;2022-11-27T00:34:43;10.23;;;5.32;;
38859;SDS011;24609;48.316;16.174;2022-11-27T00:37:09;7.55;;;3.97;;
38859;SDS011;24609;48.316;16.174;2022-11-27T00:39:36;8.20;;;4.97;;
38859;SDS011;24609;48.316;16.174;2022-11-27T00:42:01;11.73;;;4.53;;
38859;SDS011;24609;48.316;16.174;2022-11-27T00:44:27;9.25;;;4.72;;
38859;SDS011;24609;48.316;16.174;2022-11-27T00:46:53;8.05;;;4.25;;
38859;SDS011;24609;48.316;16.174;2022-11-27T00:49:18;10.18;;;4.90;;
38859;SDS011;24609;48.316;16.174;2022-11-27T00:51:44;11.70;;;5.65;;
38859;SDS011;24609;48.316;16.174;2022-11-27T00:54:10;8.85;;;5.38;;
38859;SDS011;24609;48.316;16.174;2022-11-27T00:56:36;8.35;;;4.38;;
38859;SDS011;24609;48.316;16.174;2022-11-27T00:59:04;13.90;;;5.70;;
38859;SDS011;24609;48.316;16.174;2022-11-27T01:01:31;8.93;;;4.40;;
38859;SDS011;24609;48.316;16.174;2022-11-27T01:04:00;11.60;;;6.03;;
38859;SDS011;24609;48.316;16.174;2022-11-27T01:06:29;8.80;;;5.20;;
38859;SDS011;24609;48.316;16.174;2022-11-27T01:08:56;9.73;;;4.82;;
38859;SDS011;24609;48.316;16.174;2022-11-27T01:11:24;12.00;;;6.22;;
38859;SDS011;24609;48.316;16.174;2022-11-27T01:13:52;8.80;;;5.45;;
38859;SDS011;24609;48.316;16.174;2022-11-27T01:16:20;16.85;;;6.60;;
38859;SDS011;24609;48.316;16.174;2022-11-27T01:18:48;9.88;;;5.32;;
38859;SDS011;24609;48.316;16.174;2022-11-27T01:21:17;9.23;;;5.65;;
38859;SDS011;24609;48.316;16.174;2022-11-27T01:23:44;8.65;;;5.40;;
38859;SDS011;24609;48.316;16.174;2022-11-27T01:26:10;9.23;;;5.80;;
38859;SDS011;24609;48.316;16.174;2022-11-27T01:28:37;12.02;;;5.93;;
38859;SDS011;24609;48.316;16.174;2022-11-27T01:31:08;11.88;;;6.70;;
38859;SDS011;24609;48.316;16.174;2022-11-27T01:33:39;17.30;;;6.60;;
38859;SDS011;24609;48.316;16.174;2022-11-27T01:36:05;10.80;;;5.80;;
38859;SDS011;24609;48.316;16.174;2022-11-27T01:38:32;12.57;;;5.93;;
38859;SDS011;24609;48.316;16.174;2022-11-27T01:41:09;10.75;;;6.07;;
38859;SDS011;24609;48.316;16.174;2022-11-27T01:43:51;16.02;;;7.45;;
38859;SDS011;24609;48.316;16.174;2022-11-27T01:46:46;29.15;;;7.05;;
38859;SDS011;24609;48.316;16.174;2022-11-27T01:51:52;12.23;;;6.78;;
38859;SDS011;24609;48.316;16.174;2022-11-27T01:57:15;11.35;;;5.47;;
38859;SDS011;24609;48.316;16.174;2022-11-27T01:59:45;10.05;;;5.22;;
38859;SDS011;24609;48.316;16.174;2022-11-27T02:02:13;12.18;;;5.78;;
38859;SDS011;24609;48.316;16.174;2022-11-27T02:04:39;10.18;;;4.95;;
38859;SDS011;24609;48.316;16.174;2022-11-27T02:07:04;10.60;;;6.20;;
38859;SDS011;24609;48.316;16.174;2022-11-27T02:09:30;9.23;;;5.70;;
38859;SDS011;24609;48.316;16.174;2022-11-27T02:12:00;11.50;;;5.88;;
38859;SDS011;24609;48.316;16.174;2022-11-27T02:30:25;13.40;;;5.38;;
38859;SDS011;24609;48.316;16.174;2022-11-27T02:32:56;8.43;;;4.90;;
38859;SDS011;24609;48.316;16.174;2022-11-27T02:38:16;9.65;;;4.88;;
38859;SDS011;24609;48.316;16.174;2022-11-27T02:43:25;10.90;;;5.78;;
38859;SDS011;24609;48.316;16.174;2022-11-27T02:46:07;9.18;;;5.50;;
38859;SDS011;24609;48.316;16.174;2022-11-27T02:48:36;8.15;;;4.95;;
38859;SDS011;24609;48.316;16.174;2022-11-27T02:51:11;9.57;;;4.53;;
38859;SDS011;24609;48.316;16.174;2022-11-27T02:53:40;12.88;;;4.47;;
38859;SDS011;24609;48.316;16.174;2022-11-27T02:56:11;8.20;;;4.57;;
38859;SDS011;24609;48.316;16.174;2022-11-27T02:58:40;8.95;;;4.35;;
38859;SDS011;24609;48.316;16.174;2022-11-27T03:01:06;12.90;;;5.25;;
38859;SDS011;24609;48.316;16.174;2022-11-27T03:03:36;8.10;;;4.47;;
38859;SDS011;24609;48.316;16.174;2022-11-27T03:06:08;8.30;;;4.35;;
38859;SDS011;24609;48.316;16.174;2022-11-27T03:08:40;9.55;;;3.83;;
38859;SDS011;24609;48.316;16.174;2022-11-27T03:11:10;6.78;;;4.70;;
38859;SDS011;24609;48.316;16.174;2022-11-27T03:13:40;6.65;;;3.88;;
38859;SDS011;24609;48.316;16.174;2022-11-27T03:21:52;8.48;;;3.95;;
38859;SDS011;24609;48.316;16.174;2022-11-27T03:24:20;16.65;;;5.65;;
38859;SDS011;24609;48.316;16.174;2022-11-27T03:26:46;6.03;;;4.13;;
38859;SDS011;24609;48.316;16.174;2022-11-27T03:29:33;5.20;;;3.63;;
38859;SDS011;24609;48.316;16.174;2022-11-27T03:32:03;6.25;;;3.45;;
38859;SDS011;24609;48.316;16.174;2022-11-27T03:34:29;7.15;;;3.78;;
38859;SDS011;24609;48.316;16.174;2022-11-27T03:36:55;6.90;;;4.20;;
38859;SDS011;24609;48.316;16.174;2022-11-27T03:39:21;10.43;;;4.00;;
38859;SDS011;24609;48.316;16.174;2022-11-27T03:53:17;8.48;;;4.13;;
38859;SDS011;24609;48.316;16.174;2022-11-27T03:56:15;7.25;;;4.05;;
38859;SDS011;24609;48.316;16.174;2022-11-27T03:58:53;4.90;;;2.53;;
38859;SDS011;24609;48.316;16.174;2022-11-27T04:01:28;7.63;;;3.90;;
38859;SDS011;24609;48.316;16.174;2022-11-27T04:03:55;10.35;;;4.50;;
38859;SDS011;24609;48.316;16.174;2022-11-27T04:06:21;14.63;;;5.38;;
38859;SDS011;24609;48.316;16.174;2022-11-27T04:08:46;5.88;;;4.15;;
38859;SDS011;24609;48.316;16.174;2022-11-27T04:11:13;8.70;;;3.60;;
38859;SDS011;24609;48.316;16.174;2022-11-27T04:13:39;7.38;;;4.20;;
38859;SDS011;24609;48.316;16.174;2022-11-27T04:16:05;7.07;;;4.45;;
38859;SDS011;24609;48.316;16.174;2022-11-27T04:18:31;8.13;;;4.10;;
38859;SDS011;24609;48.316;16.174;2022-11-27T04:20:57;6.15;;;3.65;;
38859;SDS011;24609;48.316;16.174;2022-11-27T04:23:22;4.20;;;3.03;;
38859;SDS011;24609;48.316;16.174;2022-11-27T04:25:48;5.65;;;4.03;;
38859;SDS011;24609;48.316;16.174;2022-11-27T04:28:14;7.28;;;3.90;;
38859;SDS011;24609;48.316;16.174;2022-11-27T04:30:41;7.63;;;3.38;;
38859;SDS011;24609;48.316;16.174;2022-11-27T04:33:07;9.98;;;3.80;;
38859;SDS011;24609;48.316;16.174;2022-11-27T04:35:33;4.20;;;3.03;;
38859;SDS011;24609;48.316;16.174;2022-11-27T04:37:58;10.25;;;4.95;;
38859;SDS011;24609;48.316;16.174;2022-11-27T04:40:24;8.68;;;4.10;;
38859;SDS011;24609;48.316;16.174;2022-11-27T04:42:50;7.00;;;4.00;;
38859;SDS011;24609;48.316;16.174;2022-11-27T04:45:16;16.83;;;7.93;;
38859;SDS011;24609;48.316;16.174;2022-11-27T04:47:42;18.05;;;7.53;;
38859;SDS011;24609;48.316;16.174;2022-11-27T04:50:07;11.93;;;5.95;;
38859;SDS011;24609;48.316;16.174;2022-11-27T04:52:34;19.50;;;8.48;;
38859;SDS011;24609;48.316;16.174;2022-11-27T04:55:00;13.05;;;6.88;;
38859;SDS011;24609;48.316;16.174;2022-11-27T04:57:26;14.25;;;6.22;;
38859;SDS011;24609;48.316;16.174;2022-11-27T04:59:52;11.77;;;6.00;;
38859;SDS011;24609;48.316;16.174;2022-11-27T05:02:17;13.35;;;5.85;;
38859;SDS011;24609;48.316;16.174;2022-11-27T05:04:43;8.30;;;5.10;;
38859;SDS011;24609;48.316;16.174;2022-11-27T05:07:09;15.00;;;6.43;;
38859;SDS011;24609;48.316;16.174;2022-11-27T05:09:35;17.55;;;7.90;;
38859;SDS011;24609;48.316;16.174;2022-11-27T05:12:00;9.15;;;5.60;;
38859;SDS011;24609;48.316;16.174;2022-11-27T05:14:26;12.45;;;6.50;;
38859;SDS011;24609;48.316;16.174;2022-11-27T05:16:54;13.90;;;8.05;;
38859;SDS011;24609;48.316;16.174;2022-11-27T05:19:22;18.08;;;7.05;;
38859;SDS011;24609;48.316;16.174;2022-11-27T05:21:50;14.55;;;5.97;;
38859;SDS011;24609;48.316;16.174;2022-11-27T05:24:17;10.50;;;5.53;;
38859;SDS011;24609;48.316;16.174;2022-11-27T05:26:44;10.52;;;6.55;;
38859;SDS011;24609;48.316;16.174;2022-11-27T05:29:10;9.15;;;5.53;;
38859;SDS011;24609;48.316;16.174;2022-11-27T05:31:37;9.15;;;5.28;;
38859;SDS011;24609;48.316;16.174;2022-11-27T05:34:03;10.52;;;4.70;;
38859;SDS011;24609;48.316;16.174;2022-11-27T05:36:29;9.98;;;5.20;;
38859;SDS011;24609;48.316;16.174;2022-11-27T05:38:55;8.77;;;4.47;;
38859;SDS011;24609;48.316;16.174;2022-11-27T05:41:21;12.90;;;5.57;;
38859;SDS011;24609;48.316;16.174;2022-11-27T05:43:47;11.20;;;5.25;;
38859;SDS011;24609;48.316;16.174;2022-11-27T05:46:13;9.80;;;4.80;;
38859;SDS011;24609;48.316;16.174;2022-11-27T05:48:40;10.38;;;4.45;;
38859;SDS011;24609;48.316;16.174;2022-11-27T05:51:06;10.80;;;4.85;;
38859;SDS011;24609;48.316;16.174;2022-11-27T05:53:32;13.50;;;5.40;;
38859;SDS011;24609;48.316;16.174;2022-11-27T05:56:17;8.50;;;4.75;;
38859;SDS011;24609;48.316;16.174;2022-11-27T05:58:43;12.23;;;5.53;;
38859;SDS011;24609;48.316;16.174;2022-11-27T06:01:10;8.93;;;5.38;;
38859;SDS011;24609;48.316;16.174;2022-11-27T06:03:37;9.70;;;4.22;;
38859;SDS011;24609;48.316;16.174;2022-11-27T06:06:06;9.77;;;4.32;;
38859;SDS011;24609;48.316;16.174;2022-11-27T06:08:35;6.80;;;3.95;;
38859;SDS011;24609;48.316;16.174;2022-11-27T06:11:04;4.93;;;4.13;;
38859;SDS011;24609;48.316;16.174;2022-11-27T06:13:33;12.00;;;3.55;;
38859;SDS011;24609;48.316;16.174;2022-11-27T06:18:33;6.90;;;4.53;;
38859;SDS011;24609;48.316;16.174;2022-11-27T06:20:59;10.18;;;6.38;;
38859;SDS011;24609;48.316;16.174;2022-11-27T06:23:25;11.32;;;5.57;;
38859;SDS011;24609;48.316;16.174;2022-11-27T06:25:50;8.13;;;5.38;;
38859;SDS011;24609;48.316;16.174;2022-11-27T06:28:16;8.68;;;5.22;;
38859;SDS011;24609;48.316;16.174;2022-11-27T06:30:42;12.65;;;5.32;;
38859;SDS011;24609;48.316;16.174;2022-11-27T06:33:07;10.35;;;5.45;;
38859;SDS011;24609;48.316;16.174;2022-11-27T06:35:33;14.32;;;6.00;;
38859;SDS011;24609;48.316;16.174;2022-11-27T06:37:58;7.63;;;5.50;;
38859;SDS011;24609;48.316;16.174;2022-11-27T06:40:24;9.05;;;5.65;;
38859;SDS011;24609;48.316;16.174;2022-11-27T06:42:50;6.38;;;4.05;;
38859;SDS011;24609;48.316;16.174;2022-11-27T06:45:15;11.65;;;6.00;;
38859;SDS011;24609;48.316;16.174;2022-11-27T06:47:41;10.38;;;6.70;;
38859;SDS011;24609;48.316;16.174;2022-11-27T06:50:07;9.05;;;5.80;;
38859;SDS011;24609;48.316;16.174;2022-11-27T06:52:32;10.40;;;5.70;;
38859;SDS011;24609;48.316;16.174;2022-11-27T06:54:58;14.15;;;7.88;;
38859;SDS011;24609;48.316;16.174;2022-11-27T06:57:24;12.20;;;7.10;;
38859;SDS011;24609;48.316;16.174;2022-11-27T06:59:49;11.35;;;6.20;;
38859;SDS011;24609;48.316;16.174;2022-11-27T07:02:15;11.10;;;6.93;;
38859;SDS011;24609;48.316;16.174;2022-11-27T07:04:41;14.45;;;7.35;;
38859;SDS011;24609;48.316;16.174;2022-11-27T07:07:06;13.50;;;7.97;;
38859;SDS011;24609;48.316;16.174;2022-11-27T07:09:32;14.38;;;8.43;;
38859;SDS011;24609;48.316;16.174;2022-11-27T07:11:58;13.85;;;7.47;;
38859;SDS011;24609;48.316;16.174;2022-11-27T07:14:23;20.27;;;10.00;;
38859;SDS011;24609;48.316;16.174;2022-11-27T07:16:49;14.82;;;7.88;;
38859;SDS011;24609;48.316;16.174;2022-11-27T07:19:15;12.02;;;6.25;;
38859;SDS011;24609;48.316;16.174;2022-11-27T07:21:40;14.23;;;7.03;;
38859;SDS011;24609;48.316;16.174;2022-11-27T07:24:06;13.95;;;7.03;;
38859;SDS011;24609;48.316;16.174;2022-11-27T07:26:32;12.00;;;7.07;;
38859;SDS011;24609;48.316;16.174;2022-11-27T07:28:58;18.42;;;9.15;;
38859;SDS011;24609;48.316;16.174;2022-11-27T07:31:24;13.52;;;7.40;;
38859;SDS011;24609;48.316;16.174;2022-11-27T07:33:52;11.40;;;7.37;;
38859;SDS011;24609;48.316;16.174;2022-11-27T07:36:19;21.30;;;8.43;;
38859;SDS011;24609;48.316;16.174;2022-11-27T07:38:49;17.00;;;9.38;;
38859;SDS011;24609;48.316;16.174;2022-11-27T07:41:16;16.63;;;7.90;;
38859;SDS011;24609;48.316;16.174;2022-11-27T07:43:42;15.88;;;6.35;;
38859;SDS011;24609;48.316;16.174;2022-11-27T07:46:13;11.32;;;6.57;;
38859;SDS011;24609;48.316;16.174;2022-11-27T07:48:43;13.27;;;8.43;;
38859;SDS011;24609;48.316;16.174;2022-11-27T07:51:11;18.33;;;8.30;;
38859;SDS011;24609;48.316;16.174;2022-11-27T07:53:39;25.00;;;9.05;;
38859;SDS011;24609;48.316;16.174;2022-11-27T07:56:06;22.92;;;9.02;;
38859;SDS011;24609;48.316;16.174;2022-11-27T07:58:33;23.27;;;9.70;;
38859;SDS011;24609;48.316;16.174;2022-11-27T08:00:59;18.10;;;8.85;;
38859;SDS011;24609;48.316;16.174;2022-11-27T08:03:24;19.73;;;10.55;;
38859;SDS011;24609;48.316;16.174;2022-11-27T08:05:50;16.50;;;10.00;;
38859;SDS011;24609;48.316;16.174;2022-11-27T08:08:16;19.65;;;9.93;;
38859;SDS011;24609;48.316;16.174;2022-11-27T08:10:42;25.05;;;13.05;;
38859;SDS011;24609;48.316;16.174;2022-11-27T08:13:08;50.85;;;23.90;;
38859;SDS011;24609;48.316;16.174;2022-11-27T08:15:35;21.42;;;10.05;;
38859;SDS011;24609;48.316;16.174;2022-11-27T08:18:01;18.67;;;8.77;;
38859;SDS011;24609;48.316;16.174;2022-11-27T08:20:27;20.77;;;10.55;;
38859;SDS011;24609;48.316;16.174;2022-11-27T08:22:52;29.08;;;11.80;;
38859;SDS011;24609;48.316;16.174;2022-11-27T08:25:18;21.35;;;10.35;;
38859;SDS011;24609;48.316;16.174;2022-11-27T08:27:43;23.38;;;9.80;;
38859;SDS011;24609;48.316;16.174;2022-11-27T08:30:12;25.65;;;10.70;;
38859;SDS011;24609;48.316;16.174;2022-11-27T08:32:38;22.52;;;11.00;;
38859;SDS011;24609;48.316;16.174;2022-11-27T08:35:05;31.27;;;13.18;;
38859;SDS011;24609;48.316;16.174;2022-11-27T08:37:32;33.97;;;11.10;;
38859;SDS011;24609;48.316;16.174;2022-11-27T08:39:58;29.75;;;12.18;;
38859;SDS011;24609;48.316;16.174;2022-11-27T08:42:23;24.27;;;12.10;;
38859;SDS011;24609;48.316;16.174;2022-11-27T08:44:49;20.05;;;9.82;;
38859;SDS011;24609;48.316;16.174;2022-11-27T08:47:15;21.92;;;9.57;;
38859;SDS011;24609;48.316;16.174;2022-11-27T08:49:41;23.52;;;10.00;;
38859;SDS011;24609;48.316;16.174;2022-11-27T08:52:08;27.02;;;11.65;;
38859;SDS011;24609;48.316;16.174;2022-11-27T08:54:34;27.33;;;11.05;;
38859;SDS011;24609;48.316;16.174;2022-11-27T08:57:00;21.35;;;9.77;;
38859;SDS011;24609;48.316;16.174;2022-11-27T08:59:26;22.00;;;11.35;;
38859;SDS011;24609;48.316;16.174;2022-11-27T09:01:51;25.35;;;10.57;;
38859;SDS011;24609;48.316;16.174;2022-11-27T09:04:17;28.88;;;11.55;;
38859;SDS011;24609;48.316;16.174;2022-11-27T09:06:43;18.83;;;10.40;;
38859;SDS011;24609;48.316;16.174;2022-11-27T09:09:08;32.05;;;10.65;;
38859;SDS011;24609;48.316;16.174;2022-11-27T09:11:34;22.88;;;10.02;;
38859;SDS011;24609;48.316;16.174;2022-11-27T09:14:01;22.83;;;10.25;;
38859;SDS011;24609;48.316;16.174;2022-11-27T09:16:27;19.00;;;9.85;;
38859;SDS011;24609;48.316;16.174;2022-11-27T09:18:54;19.98;;;10.52;;
38859;SDS011;24609;48.316;16.174;2022-11-27T09:21:21;16.35;;;8.63;;
38859;SDS011;24609;48.316;16.174;2022-11-27T09:23:52;16.08;;;8.85;;
38859;SDS011;24609;48.316;16.174;2022-11-27T09:26:19;22.45;;;9.73;;
38859;SDS011;24609;48.316;16.174;2022-11-27T09:28:46;26.33;;;10.80;;
38859;SDS011;24609;48.316;16.174;2022-11-27T09:31:13;18.30;;;10.02;;
38859;SDS011;24609;48.316;16.174;2022-11-27T09:33:40;23.35;;;10.95;;
38859;SDS011;24609;48.316;16.174;2022-11-27T09:36:07;21.77;;;10.57;;
38859;SDS011;24609;48.316;16.174;2022-11-27T09:38:34;18.65;;;10.13;;
38859;SDS011;24609;48.316;16.174;2022-11-27T09:41:47;21.80;;;10.00;;
38859;SDS011;24609;48.316;16.174;2022-11-27T09:44:04;20.48;;;10.10;;
38859;SDS011;24609;48.316;16.174;2022-11-27T09:46:40;18.92;;;9.55;;
38859;SDS011;24609;48.316;16.174;2022-11-27T09:49:08;24.25;;;12.13;;
38859;SDS011;24609;48.316;16.174;2022-11-27T09:51:44;23.70;;;9.98;;
38859;SDS011;24609;48.316;16.174;2022-11-27T09:54:36;23.58;;;9.45;;
38859;SDS011;24609;48.316;16.174;2022-11-27T09:57:10;25.17;;;10.73;;
38859;SDS011;24609;48.316;16.174;2022-11-27T09:59:42;20.17;;;9.32;;
38859;SDS011;24609;48.316;16.174;2022-11-27T10:02:15;16.98;;;8.77;;
38859;SDS011;24609;48.316;16.174;2022-11-27T10:04:42;23.08;;;10.25;;
38859;SDS011;24609;48.316;16.174;2022-11-27T10:07:19;17.17;;;9.70;;
38859;SDS011;24609;48.316;16.174;2022-11-27T10:12:50;15.27;;;9.55;;
38859;SDS011;24609;48.316;16.174;2022-11-27T10:18:20;27.92;;;11.00;;
38859;SDS011;24609;48.316;16.174;2022-11-27T10:26:40;17.60;;;8.65;;
38859;SDS011;24609;48.316;16.174;2022-11-27T10:31:56;23.77;;;12.02;;
38859;SDS011;24609;48.316;16.174;2022-11-27T10:37:10;21.58;;;11.30;;
38859;SDS011;24609;48.316;16.174;2022-11-27T10:39:45;19.38;;;10.10;;
38859;SDS011;24609;48.316;16.174;2022-11-27T10:45:17;21.85;;;10.15;;
38859;SDS011;24609;48.316;16.174;2022-11-27T10:47:55;18.05;;;8.38;;
38859;SDS011;24609;48.316;16.174;2022-11-27T10:50:21;19.88;;;9.18;;
38859;SDS011;24609;48.316;16.174;2022-11-27T10:52:52;18.67;;;9.60;;
38859;SDS011;24609;48.316;16.174;2022-11-27T10:56:13;22.73;;;10.13;;
38859;SDS011;24609;48.316;16.174;2022-11-27T10:58:58;16.45;;;8.57;;
38859;SDS011;24609;48.316;16.174;2022-11-27T11:01:27;23.13;;;13.25;;
38859;SDS011;24609;48.316;16.174;2022-11-27T11:04:05;20.48;;;9.85;;
38859;SDS011;24609;48.316;16.174;2022-11-27T11:06:31;18.50;;;8.45;;
38859;SDS011;24609;48.316;16.174;2022-11-27T11:09:04;20.80;;;8.80;;
38859;SDS011;24609;48.316;16.174;2022-11-27T11:11:36;22.13;;;10.45;;
38859;SDS011;24609;48.316;16.174;2022-11-27T11:14:02;17.17;;;8.13;;
38859;SDS011;24609;48.316;16.174;2022-11-27T11:16:28;20.45;;;9.90;;
38859;SDS011;24609;48.316;16.174;2022-11-27T11:18:55;15.15;;;7.38;;
38859;SDS011;24609;48.316;16.174;2022-11-27T11:21:29;24.70;;;12.48;;
38859;SDS011;24609;48.316;16.174;2022-11-27T11:23:58;24.88;;;10.85;;
38859;SDS011;24609;48.316;16.174;2022-11-27T11:28:57;35.45;;;17.38;;
38859;SDS011;24609;48.316;16.174;2022-11-27T11:31:30;26.92;;;14.13;;
38859;SDS011;24609;48.316;16.174;2022-11-27T11:33:58;18.13;;;9.57;;
38859;SDS011;24609;48.316;16.174;2022-11-27T11:36:29;17.67;;;9.70;;
38859;SDS011;24609;48.316;16.174;2022-11-27T11:38:54;15.77;;;8.25;;
38859;SDS011;24609;48.316;16.174;2022-11-27T11:41:20;17.63;;;9.32;;
38859;SDS011;24609;48.316;16.174;2022-11-27T11:43:55;15.05;;;7.93;;
38859;SDS011;24609;48.316;16.174;2022-11-27T11:46:29;14.65;;;9.55;;
38859;SDS011;24609;48.316;16.174;2022-11-27T11:51:28;16.42;;;8.18;;
38859;SDS011;24609;48.316;16.174;2022-11-27T11:56:54;36.88;;;17.13;;
38859;SDS011;24609;48.316;16.174;2022-11-27T11:59:25;32.28;;;12.60;;
38859;SDS011;24609;48.316;16.174;2022-11-27T12:16:27;15.32;;;8.32;;
38859;SDS011;24609;48.316;16.174;2022-11-27T12:43:32;18.80;;;9.80;;
38859;SDS011;24609;48.316;16.174;2022-11-27T12:48:35;16.60;;;9.55;;
38859;SDS011;24609;48.316;16.174;2022-11-27T12:51:18;18.10;;;9.45;;
38859;SDS011;24609;48.316;16.174;2022-11-27T12:53:52;16.42;;;8.60;;
38859;SDS011;24609;48.316;16.174;2022-11-27T12:56:30;23.20;;;9.75;;
38859;SDS011;24609;48.316;16.174;2022-11-27T12:59:17;25.33;;;9.48;;
38859;SDS011;24609;48.316;16.174;2022-11-27T13:01:51;16.52;;;8.90;;
38859;SDS011;24609;48.316;16.174;2022-11-27T13:04:36;16.33;;;9.32;;
38859;SDS011;24609;48.316;16.174;2022-11-27T13:07:10;21.55;;;10.15;;
38859;SDS011;24609;48.316;16.174;2022-11-27T13:09:46;22.30;;;12.98;;
38859;SDS011;24609;48.316;16.174;2022-11-27T13:12:20;17.48;;;9.65;;
38859;SDS011;24609;48.316;16.174;2022-11-27T13:14:58;26.17;;;12.23;;
38859;SDS011;24609;48.316;16.174;2022-11-27T13:17:33;23.27;;;12.38;;
38859;SDS011;24609;48.316;16.174;2022-11-27T13:20:13;21.77;;;11.75;;
38859;SDS011;24609;48.316;16.174;2022-11-27T13:22:42;21.42;;;12.73;;
38859;SDS011;24609;48.316;16.174;2022-11-27T13:25:10;24.52;;;10.55;;
38859;SDS011;24609;48.316;16.174;2022-11-27T13:27:39;25.75;;;12.27;;
38859;SDS011;24609;48.316;16.174;2022-11-27T13:30:14;17.63;;;8.65;;
38859;SDS011;24609;48.316;16.174;2022-11-27T13:32:55;23.83;;;11.93;;
38859;SDS011;24609;48.316;16.174;2022-11-27T13:38:06;26.90;;;11.82;;
38859;SDS011;24609;48.316;16.174;2022-11-27T13:40:46;35.47;;;11.95;;
38859;SDS011;24609;48.316;16.174;2022-11-27T13:43:25;42.15;;;13.90;;
38859;SDS011;24609;48.316;16.174;2022-11-27T13:46:02;41.95;;;12.13;;
38859;SDS011;24609;48.316;16.174;2022-11-27T13:48:57;37.85;;;9.32;;
38859;SDS011;24609;48.316;16.174;2022-11-27T13:51:23;22.38;;;9.60;;
38859;SDS011;24609;48.316;16.174;2022-11-27T13:53:51;19.77;;;9.85;;
38859;SDS011;24609;48.316;16.174;2022-11-27T13:56:26;23.13;;;9.52;;
38859;SDS011;24609;48.316;16.174;2022-11-27T13:58:54;23.17;;;10.35;;
38859;SDS011;24609;48.316;16.174;2022-11-27T14:01:21;15.88;;;7.82;;
38859;SDS011;24609;48.316;16.174;2022-11-27T14:03:48;17.20;;;8.85;;
38859;SDS011;24609;48.316;16.174;2022-11-27T14:06:35;29.60;;;11.85;;
38859;SDS011;24609;48.316;16.174;2022-11-27T14:09:01;27.10;;;12.20;;
38859;SDS011;24609;48.316;16.174;2022-11-27T14:11:31;80.57;;;27.55;;
38859;SDS011;24609;48.316;16.174;2022-11-27T14:14:12;27.17;;;12.30;;
38859;SDS011;24609;48.316;16.174;2022-11-27T14:16:41;29.33;;;13.35;;
38859;SDS011;24609;48.316;16.174;2022-11-27T14:19:23;38.63;;;11.38;;
38859;SDS011;24609;48.316;16.174;2022-11-27T14:21:57;65.05;;;20.50;;
38859;SDS011;24609;48.316;16.174;2022-11-27T14:27:21;29.27;;;10.75;;
38859;SDS011;24609;48.316;16.174;2022-11-27T14:29:48;36.58;;;16.20;;
38859;SDS011;24609;48.316;16.174;2022-11-27T14:32:15;22.58;;;11.02;;
38859;SDS011;24609;48.316;16.174;2022-11-27T14:34:42;19.98;;;9.63;;
38859;SDS011;24609;48.316;16.174;2022-11-27T14:37:18;18.83;;;9.80;;
38859;SDS011;24609;48.316;16.174;2022-11-27T14:39:46;15.98;;;10.27;;
38859;SDS011;24609;48.316;16.174;2022-11-27T14:42:21;24.40;;;10.68;;
38859;SDS011;24609;48.316;16.174;2022-11-27T14:44:59;18.63;;;8.73;;
38859;SDS011;24609;48.316;16.174;2022-11-27T14:47:38;18.37;;;8.87;;
38859;SDS011;24609;48.316;16.174;2022-11-27T14:50:16;14.32;;;8.00;;
38859;SDS011;24609;48.316;16.174;2022-11-27T14:52:45;15.65;;;6.90;;
38859;SDS011;24609;48.316;16.174;2022-11-27T14:55:18;12.40;;;6.80;;
38859;SDS011;24609;48.316;16.174;2022-11-27T14:57:44;22.80;;;9.63;;
38859;SDS011;24609;48.316;16.174;2022-11-27T15:00:14;17.05;;;7.90;;
38859;SDS011;24609;48.316;16.174;2022-11-27T15:02:51;23.50;;;10.10;;
38859;SDS011;24609;48.316;16.174;2022-11-27T15:05:19;22.00;;;8.90;;
38859;SDS011;24609;48.316;16.174;2022-11-27T15:07:48;34.58;;;16.17;;
38859;SDS011;24609;48.316;16.174;2022-11-27T15:10:26;33.50;;;13.48;;
38859;SDS011;24609;48.316;16.174;2022-11-27T15:13:03;34.63;;;14.45;;
38859;SDS011;24609;48.316;16.174;2022-11-27T15:15:37;19.23;;;8.40;;
38859;SDS011;24609;48.316;16.174;2022-11-27T15:18:05;31.38;;;13.02;;
38859;SDS011;24609;48.316;16.174;2022-11-27T15:20:42;22.98;;;10.35;;
38859;SDS011;24609;48.316;16.174;2022-11-27T15:23:16;15.75;;;8.20;;
38859;SDS011;24609;48.316;16.174;2022-11-27T15:26:07;17.40;;;9.38;;
38859;SDS011;24609;48.316;16.174;2022-11-27T15:28:53;16.83;;;8.80;;
38859;SDS011;24609;48.316;16.174;2022-11-27T15:31:34;16.45;;;8.75;;
38859;SDS011;24609;48.316;16.174;2022-11-27T15:34:18;14.30;;;8.02;;
38859;SDS011;24609;48.316;16.174;2022-11-27T15:36:52;20.63;;;9.10;;
38859;SDS011;24609;48.316;16.174;2022-11-27T15:39:22;20.05;;;8.98;;
38859;SDS011;24609;48.316;16.174;2022-11-27T15:41:58;31.63;;;13.32;;
38859;SDS011;24609;48.316;16.174;2022-11-27T15:44:26;34.90;;;16.85;;
38859;SDS011;24609;48.316;16.174;2022-11-27T15:46:53;18.98;;;10.73;;
38859;SDS011;24609;48.316;16.174;2022-11-27T15:49:21;28.33;;;12.20;;
38859;SDS011;24609;48.316;16.174;2022-11-27T15:51:47;27.08;;;12.95;;
38859;SDS011;24609;48.316;16.174;2022-11-27T15:54:14;31.10;;;16.40;;
38859;SDS011;24609;48.316;16.174;2022-11-27T15:56:40;28.08;;;14.07;;
38859;SDS011;24609;48.316;16.174;2022-11-27T15:59:06;40.10;;;19.95;;
38859;SDS011;24609;48.316;16.174;2022-11-27T16:01:32;33.42;;;15.50;;
38859;SDS011;24609;48.316;16.174;2022-11-27T16:03:58;32.83;;;14.77;;
38859;SDS011;24609;48.316;16.174;2022-11-27T16:06:24;31.38;;;15.43;;
38859;SDS011;24609;48.316;16.174;2022-11-27T16:08:56;31.75;;;14.45;;
38859;SDS011;24609;48.316;16.174;2022-11-27T16:11:23;39.78;;;14.98;;
38859;SDS011;24609;48.316;16.174;2022-11-27T16:13:50;30.73;;;13.23;;
38859;SDS011;24609;48.316;16.174;2022-11-27T16:16:16;35.13;;;14.43;;
38859;SDS011;24609;48.316;16.174;2022-11-27T16:18:42;41.50;;;15.95;;
38859;SDS011;24609;48.316;16.174;2022-11-27T16:21:08;78.18;;;26.02;;
38859;SDS011;24609;48.316;16.174;2022-11-27T16:23:36;34.80;;;17.35;;
38859;SDS011;24609;48.316;16.174;2022-11-27T16:26:04;37.45;;;19.88;;
38859;SDS011;24609;48.316;16.174;2022-11-27T16:28:30;35.15;;;16.00;;
38859;SDS011;24609;48.316;16.174;2022-11-27T16:30:56;31.92;;;14.93;;
38859;SDS011;24609;48.316;16.174;2022-11-27T16:33:30;37.65;;;17.42;;
38859;SDS011;24609;48.316;16.174;2022-11-27T16:36:02;36.28;;;19.05;;